Time;durP1;ratioP1;P1;durP2;ratioP2;P2;SDS_P1;SDS_P2;PMS_P1;PMS_P2;Temp;Humidity;BMP_temperature;BMP_pressure;BME280_temperature;BME280_humidity;BME280_pressure;Samples;Min_cycle;Max_cycle;Signal;HPM_P1;HPM_P2
2022/08/27 00:00:22;;;;;;;7.87;3.80;;;;;;;24.54;100.00;100736.88;2106058;28;20183;-64
2022/08/27 00:01:23;;;;;;;16.57;4.80;;;;;;;24.52;100.00;100731.72;2106260;28;20672;-64
2022/08/27 00:02:24;;;;;;;13.37;4.10;;;;;;;24.53;100.00;100733.28;2105906;28;20167;-65
2022/08/27 00:03:25;;;;;;;12.90;4.40;;;;;;;24.59;100.00;100730.44;2105125;28;20179;-65
2022/08/27 00:04:25;;;;;;;14.37;4.40;;;;;;;24.61;100.00;100727.84;2105978;28;20417;-65
2022/08/27 00:05:26;;;;;;;13.87;4.43;;;;;;;24.57;100.00;100727.31;2106019;28;20701;-64
2022/08/27 00:06:27;;;;;;;13.63;4.57;;;;;;;24.60;100.00;100721.41;2105847;28;20218;-64
2022/08/27 00:07:46;;;;;;;11.47;4.43;;;;;;;24.60;100.00;100729.13;2106066;28;20179;-65
2022/08/27 00:08:47;;;;;;;18.47;4.83;;;;;;;23.88;100.00;100616.31;2105837;28;20642;-64
2022/08/27 00:09:48;;;;;;;15.27;4.80;;;;;;;24.69;100.00;100720.31;2108673;28;20550;-64
2022/08/27 00:10:48;;;;;;;10.70;4.67;;;;;;;24.69;100.00;100732.41;2104423;28;20225;-65
2022/08/27 00:11:49;;;;;;;10.70;4.33;;;;;;;24.63;100.00;100720.38;2103726;28;20185;-64
2022/08/27 00:12:50;;;;;;;10.80;4.60;;;;;;;24.21;100.00;100663.47;2105948;28;20250;-65
2022/08/27 00:13:51;;;;;;;15.23;4.67;;;;;;;24.56;100.00;100725.78;2105559;28;20175;-65
2022/08/27 00:14:52;;;;;;;11.23;5.03;;;;;;;24.52;100.00;100734.56;2101237;28;20266;-64
2022/08/27 00:15:52;;;;;;;11.17;4.40;;;;;;;24.58;100.00;100728.88;2105821;28;20187;-64
2022/08/27 00:16:55;;;;;;;12.03;4.50;;;;;;;24.61;100.00;100730.69;2105955;28;20590;-64
2022/08/27 00:17:55;;;;;;;11.97;4.63;;;;;;;24.56;100.00;100725.78;2106082;28;20179;-65
2022/08/27 00:18:56;;;;;;;14.47;4.70;;;;;;;24.55;100.00;100733.53;2105751;28;20175;-64
2022/08/27 00:19:56;;;;;;;13.50;5.40;;;;;;;24.50;100.00;100736.38;2106181;28;20228;-65
2022/08/27 00:20:57;;;;;;;12.70;4.73;;;;;;;24.51;100.00;100735.84;2105873;28;20205;-65
2022/08/27 00:21:57;;;;;;;14.97;4.87;;;;;;;24.52;100.00;100743.06;2105876;28;20183;-65
2022/08/27 00:22:58;;;;;;;15.10;4.83;;;;;;;24.53;100.00;100736.13;2106070;28;20214;-64
2022/08/27 00:23:59;;;;;;;15.23;5.20;;;;;;;24.51;100.00;100735.09;2105839;28;20187;-64
2022/08/27 00:25:00;;;;;;;12.87;5.17;;;;;;;24.06;100.00;100680.78;2104703;28;20675;-65
2022/08/27 00:26:02;;;;;;;14.43;5.10;;;;;;;24.45;100.00;100732.31;2097479;28;20563;-65
2022/08/27 00:27:03;;;;;;;14.40;4.73;;;;;;;23.70;100.00;100614.09;2100380;28;20190;-66
2022/08/27 00:28:05;;;;;;;17.00;5.63;;;;;;;24.49;100.00;100738.47;2105584;28;20187;-65
2022/08/27 00:29:07;;;;;;;13.13;5.43;;;;;;;24.48;100.00;100741.81;2105959;28;20538;-65
2022/08/27 00:30:11;;;;;;;14.20;5.07;;;;;;;24.41;100.00;100734.63;2105999;28;20255;-65
2022/08/27 00:31:13;;;;;;;16.80;4.93;;;;;;;24.42;100.00;100736.16;2105894;28;20270;-65
2022/08/27 00:32:14;;;;;;;18.93;5.40;;;;;;;24.32;100.00;100739.84;2105847;28;20578;-64
2022/08/27 00:33:14;;;;;;;11.63;4.63;;;;;;;24.26;100.00;100745.53;2105358;28;20201;-64
2022/08/27 00:34:15;;;;;;;12.53;4.30;;;;;;;24.26;100.00;100741.97;2102489;28;20187;-64
2022/08/27 00:35:16;;;;;;;11.57;4.23;;;;;;;24.33;100.00;100730.06;2099933;28;20394;-64
2022/08/27 00:36:17;;;;;;;15.83;5.07;;;;;;;24.31;100.00;100744.00;2107185;28;20199;-64
2022/08/27 00:37:18;;;;;;;18.90;5.00;;;;;;;24.31;100.00;100747.56;2107642;28;20495;-64
2022/08/27 00:38:20;;;;;;;16.87;4.80;;;;;;;24.27;100.00;100737.84;2104202;28;20195;-64
2022/08/27 00:39:21;;;;;;;16.33;4.97;;;;;;;24.28;100.00;100742.19;2105104;28;20182;-64
2022/08/27 00:40:22;;;;;;;14.30;5.20;;;;;;;24.30;100.00;100745.28;2107060;28;20511;-64
2022/08/27 00:41:23;;;;;;;17.37;4.90;;;;;;;23.99;100.00;100709.66;2107259;28;20182;-65
2022/08/27 00:42:23;;;;;;;14.87;4.70;;;;;;;24.22;100.00;100744.28;2107619;28;20171;-64
2022/08/27 00:43:28;;;;;;;17.23;4.80;;;;;;;24.20;100.00;100741.22;2103675;28;20189;-64
2022/08/27 00:44:30;;;;;;;19.87;5.37;;;;;;;24.20;100.00;100747.66;2107505;28;20190;-64
2022/08/27 00:45:37;;;;;;;17.90;4.77;;;;;;;23.85;100.00;100690.91;2102745;28;20520;-65
2022/08/27 00:46:40;;;;;;;17.57;4.77;;;;;;;24.20;100.00;100749.72;2107484;28;20428;-65
2022/08/27 00:47:48;;;;;;;13.60;5.23;;;;;;;24.09;100.00;100742.03;2107481;28;20562;-66
2022/08/27 00:48:51;;;;;;;13.33;5.30;;;;;;;23.97;100.00;100753.94;2106649;28;20193;-64
2022/08/27 00:49:57;;;;;;;15.30;5.70;;;;;;;23.29;100.00;100692.44;2106972;28;20755;-65
2022/08/27 00:50:57;;;;;;;20.57;5.77;;;;;;;23.57;100.00;100760.22;2107507;28;20636;-64
2022/08/27 00:52:05;;;;;;;19.53;5.67;;;;;;;23.70;100.00;100768.94;2107463;28;20633;-66
2022/08/27 00:53:21;;;;;;;16.73;5.50;;;;;;;23.73;100.00;100767.91;2106005;28;20179;-64
2022/08/27 00:54:23;;;;;;;17.13;5.77;;;;;;;23.63;100.00;100773.06;2102639;28;20408;-64
2022/08/27 00:55:29;;;;;;;18.83;5.27;;;;;;;23.47;100.00;100768.25;2107332;28;20175;-64
2022/08/27 00:56:35;;;;;;;17.87;5.80;;;;;;;23.43;100.00;100767.72;2107275;28;20662;-64
2022/08/27 00:57:37;;;;;;;18.23;4.60;;;;;;;23.53;100.00;100763.34;2107413;28;20424;-65
2022/08/27 00:58:45;;;;;;;13.57;5.50;;;;;;;23.66;100.00;100765.63;2107202;28;20571;-65
2022/08/27 00:59:46;;;;;;;12.23;5.30;;;;;;;23.68;100.00;100769.47;2107343;28;20909;-65
2022/08/27 01:00:47;;;;;;;15.60;5.07;;;;;;;23.73;100.00;100771.50;2107195;28;20971;-64
2022/08/27 01:03:07;;;;;;;16.53;5.30;;;;;;;23.85;100.00;100763.75;2105002;28;20436;-64
2022/08/27 01:04:07;;;;;;;13.03;5.73;;;;;;;23.85;100.00;100775.06;2106992;28;20428;-64
2022/08/27 01:05:11;;;;;;;13.80;5.17;;;;;;;23.86;100.00;100768.91;2107138;28;20217;-64
2022/08/27 01:06:14;;;;;;;16.43;5.80;;;;;;;23.20;100.00;100666.50;2107516;28;20187;-64
2022/08/27 01:07:15;;;;;;;10.83;5.13;;;;;;;23.74;100.00;100747.56;2107218;28;20478;-64
2022/08/27 01:08:20;;;;;;;13.57;5.00;;;;;;;23.95;100.00;100762.19;2107975;28;21082;-64
2022/08/27 01:09:20;;;;;;;10.33;4.80;;;;;;;24.00;100.00;100764.25;2107420;28;20216;-64
2022/08/27 01:10:24;;;;;;;13.90;5.13;;;;;;;24.09;100.00;100761.09;2107202;28;20244;-64
2022/08/27 01:11:25;;;;;;;11.60;5.13;;;;;;;24.11;100.00;100759.28;2107353;28;20190;-64
2022/08/27 01:12:27;;;;;;;11.40;5.07;;;;;;;24.10;100.00;100760.56;2107115;28;20189;-64
2022/08/27 01:13:31;;;;;;;14.60;4.80;;;;;;;24.08;100.00;100759.56;2107152;28;20187;-65
2022/08/27 01:14:31;;;;;;;10.90;4.97;;;;;;;24.12;100.00;100763.66;2107116;28;20622;-65
2022/08/27 01:15:32;;;;;;;10.70;5.13;;;;;;;23.33;100.00;100644.13;2107274;28;20409;-64
2022/08/27 01:16:37;;;;;;;13.80;4.97;;;;;;;23.91;100.00;100753.19;2107121;28;20175;-64
2022/08/27 01:17:38;;;;;;;15.60;4.83;;;;;;;23.12;100.00;100677.53;2100575;28;20180;-65
2022/08/27 01:18:39;;;;;;;12.80;5.10;;;;;;;23.49;100.00;100791.09;2107102;28;20515;-65
2022/08/27 01:19:48;;;;;;;13.50;4.77;;;;;;;23.38;100.00;100785.47;2107183;28;20417;-64
2022/08/27 01:21:04;;;;;;;10.60;4.97;;;;;;;23.36;100.00;100792.94;2106895;28;20186;-65
2022/08/27 01:22:25;;;;;;;11.93;4.77;;;;;;;23.29;100.00;100791.41;2107073;28;20424;-65
2022/08/27 01:23:28;;;;;;;12.10;5.03;;;;;;;23.34;100.00;100792.69;2101974;28;20429;-65
2022/08/27 01:24:34;;;;;;;14.57;5.13;;;;;;;23.39;100.00;100791.91;2106932;28;20425;-65
2022/08/27 01:25:36;;;;;;;9.60;4.30;;;;;;;23.50;100.00;100791.88;2106943;28;20568;-64
2022/08/27 01:26:37;;;;;;;13.50;5.57;;;;;;;23.60;100.00;100790.31;2106919;28;20477;-65
2022/08/27 01:27:39;;;;;;;13.70;5.10;;;;;;;23.62;100.00;100801.88;2104705;28;20445;-64
2022/08/27 01:28:40;;;;;;;14.93;4.77;;;;;;;23.62;100.00;100802.66;2106942;28;20235;-64
2022/08/27 01:29:42;;;;;;;11.00;5.10;;;;;;;23.54;100.00;100795.97;2106247;28;20452;-64
2022/08/27 01:30:43;;;;;;;11.93;4.80;;;;;;;23.43;100.00;100796.00;2105302;28;20568;-65
2022/08/27 01:31:43;;;;;;;15.93;5.47;;;;;;;22.82;100.00;100692.75;2099021;28;20425;-64
2022/08/27 01:32:45;;;;;;;12.80;4.80;;;;;;;23.01;100.00;100722.00;2103121;28;20186;-64
2022/08/27 01:34:03;;;;;;;11.80;4.80;;;;;;;23.66;100.00;100808.06;2107009;28;20212;-66
2022/08/27 01:35:07;;;;;;;14.53;5.37;;;;;;;22.99;100.00;100696.31;2104405;28;20655;-64
2022/08/27 01:36:07;;;;;;;10.93;5.07;;;;;;;23.78;100.00;100809.56;2107018;28;20421;-64
2022/08/27 01:37:09;;;;;;;9.77;4.47;;;;;;;23.36;100.00;100765.44;2107014;28;20428;-65
2022/08/27 01:38:11;;;;;;;12.33;4.47;;;;;;;23.66;100.00;100810.88;2107111;28;20185;-64
2022/08/27 01:39:11;;;;;;;15.07;4.83;;;;;;;23.80;100.00;100807.75;2106748;28;20765;-64
2022/08/27 01:40:12;;;;;;;12.23;4.73;;;;;;;23.97;100.00;100808.50;2107970;28;20485;-64
2022/08/27 01:41:13;;;;;;;10.97;4.30;;;;;;;24.00;100.00;100806.69;2106947;28;20241;-65
2022/08/27 01:42:26;;;;;;;14.43;5.27;;;;;;;23.99;100.00;100813.63;2107059;28;20175;-65
2022/08/27 01:43:27;;;;;;;12.13;5.00;;;;;;;23.91;100.00;100804.91;2106990;28;20171;-64
2022/08/27 01:44:28;;;;;;;12.00;5.07;;;;;;;23.88;100.00;100814.41;2107027;28;20424;-64
2022/08/27 01:45:32;;;;;;;10.07;4.40;;;;;;;23.87;100.00;100815.72;2106240;28;20179;-65
2022/08/27 01:46:32;;;;;;;9.80;4.63;;;;;;;24.01;100.00;100814.66;2106806;28;20183;-65
2022/08/27 01:47:35;;;;;;;14.67;4.73;;;;;;;24.12;100.00;100802.53;2107109;28;20413;-64
2022/08/27 01:48:35;;;;;;;14.30;4.90;;;;;;;24.08;100.00;100805.63;2106911;28;20210;-65
2022/08/27 01:49:36;;;;;;;18.27;4.77;;;;;;;23.69;100.00;100722.91;2107019;28;20218;-65
2022/08/27 01:50:39;;;;;;;12.07;4.17;;;;;;;24.01;100.00;100769.34;2107169;28;20218;-64
2022/08/27 01:51:39;;;;;;;13.70;5.03;;;;;;;24.26;100.00;100801.44;2106535;28;20171;-65
2022/08/27 01:52:40;;;;;;;15.03;4.70;;;;;;;24.25;100.00;100799.91;2106724;28;20420;-65
2022/08/27 01:53:40;;;;;;;14.67;4.93;;;;;;;24.21;100.00;100802.22;2107001;28;20186;-65
2022/08/27 01:54:41;;;;;;;13.03;4.90;;;;;;;24.17;100.00;100808.16;2106871;28;20586;-64
2022/08/27 01:55:43;;;;;;;12.83;4.60;;;;;;;24.14;100.00;100806.38;2106954;28;20694;-64
2022/08/27 01:56:43;;;;;;;13.87;4.90;;;;;;;24.13;100.00;100804.84;2109490;28;20179;-65
2022/08/27 01:57:45;;;;;;;11.43;4.37;;;;;;;23.88;100.00;100768.34;2107157;28;20211;-65
2022/08/27 01:58:46;;;;;;;14.20;4.20;;;;;;;24.11;100.00;100806.66;2106987;28;20167;-64
2022/08/27 01:59:46;;;;;;;14.87;4.80;;;;;;;24.20;100.00;100798.63;2106956;28;20405;-64
2022/08/27 02:00:50;;;;;;;12.40;4.60;;;;;;;23.32;100.00;100674.44;2105859;28;20190;-64
2022/08/27 02:01:53;;;;;;;10.00;4.00;;;;;;;24.22;100.00;100798.88;2106924;28;20686;-64
2022/08/27 02:02:56;;;;;;;18.10;5.03;;;;;;;24.26;100.00;100795.75;2106861;28;20175;-64
2022/08/27 02:03:56;;;;;;;11.93;4.50;;;;;;;24.33;100.00;100795.22;2111714;28;20206;-65
2022/08/27 02:04:57;;;;;;;11.73;4.77;;;;;;;24.28;100.00;100781.84;2107119;28;20194;-64
2022/08/27 02:05:57;;;;;;;12.57;4.70;;;;;;;24.31;100.00;100775.16;2106717;28;20179;-64
2022/08/27 02:06:58;;;;;;;14.17;4.70;;;;;;;24.27;100.00;100771.81;2106861;28;20646;-65
2022/08/27 02:07:59;;;;;;;16.70;5.30;;;;;;;24.32;100.00;100790.84;2106872;28;20167;-65
2022/08/27 02:09:00;;;;;;;12.37;4.73;;;;;;;24.26;100.00;100790.09;2106977;28;20417;-64
2022/08/27 02:10:00;;;;;;;11.00;4.63;;;;;;;24.22;100.00;100784.72;2106784;28;20213;-65
2022/08/27 02:11:01;;;;;;;11.27;4.77;;;;;;;24.09;100.00;100795.84;2107708;28;20205;-64
2022/08/27 02:12:02;;;;;;;9.80;4.77;;;;;;;24.00;100.00;100792.53;2106647;28;20541;-64
2022/08/27 02:13:05;;;;;;;17.63;4.80;;;;;;;23.97;100.00;100794.34;2107306;28;20182;-64
2022/08/27 02:14:06;;;;;;;11.97;4.20;;;;;;;24.03;100.00;100789.44;2104946;28;20205;-66
2022/08/27 02:15:07;;;;;;;13.43;4.97;;;;;;;23.92;100.00;100766.84;2106484;28;20191;-65
2022/08/27 02:16:08;;;;;;;11.80;4.67;;;;;;;24.06;100.00;100790.44;2106762;28;20179;-64
2022/08/27 02:17:08;;;;;;;13.60;4.80;;;;;;;24.00;100.00;100793.28;2106419;28;20255;-64
2022/08/27 02:18:10;;;;;;;10.43;4.93;;;;;;;23.95;100.00;100776.34;2106179;28;20191;-65
2022/08/27 02:19:11;;;;;;;12.03;4.67;;;;;;;23.99;100.00;100785.31;2107019;28;20175;-64
2022/08/27 02:20:13;;;;;;;10.57;4.27;;;;;;;23.97;100.00;100785.06;2106354;28;20175;-65
2022/08/27 02:21:14;;;;;;;12.90;4.73;;;;;;;23.97;100.00;100782.25;2106784;28;20236;-65
2022/08/27 02:22:15;;;;;;;13.73;4.30;;;;;;;23.96;100.00;100789.97;2106679;28;20429;-65
2022/08/27 02:23:15;;;;;;;14.57;4.80;;;;;;;22.80;100.00;100600.03;2104654;28;20190;-64
2022/08/27 02:24:16;;;;;;;12.87;4.97;;;;;;;23.97;100.00;100783.03;2106390;28;20180;-64
2022/08/27 02:25:19;;;;;;;12.83;4.90;;;;;;;23.96;100.00;100780.72;2106610;28;20232;-64
2022/08/27 02:26:19;;;;;;;11.70;4.37;;;;;;;23.98;100.00;100781.75;2106226;28;20241;-65
2022/08/27 02:27:20;;;;;;;10.40;4.63;;;;;;;23.94;100.00;100778.41;2106686;28;20262;-64
2022/08/27 02:28:21;;;;;;;13.97;4.70;;;;;;;23.77;100.00;100755.03;2106482;28;20178;-64
2022/08/27 02:29:22;;;;;;;12.70;4.40;;;;;;;23.95;100.00;100782.00;2106401;28;20183;-64
2022/08/27 02:30:23;;;;;;;11.83;4.33;;;;;;;23.93;100.00;100781.75;2106769;28;20183;-64
2022/08/27 02:31:24;;;;;;;10.30;4.67;;;;;;;23.87;100.00;100786.63;2106598;28;20183;-65
2022/08/27 02:32:24;;;;;;;10.97;4.70;;;;;;;23.93;100.00;100782.53;2106309;28;20179;-65
2022/08/27 02:33:25;;;;;;;12.83;4.90;;;;;;;23.64;100.00;100740.66;2106584;28;20316;-65
2022/08/27 02:34:27;;;;;;;12.73;5.10;;;;;;;23.87;100.00;100784.59;2106582;28;20568;-64
2022/08/27 02:35:29;;;;;;;12.40;4.40;;;;;;;23.88;100.00;100785.34;2106555;28;20182;-64
2022/08/27 02:36:30;;;;;;;13.53;4.73;;;;;;;23.73;100.00;100782.03;2106583;28;20174;-65
2022/08/27 02:37:30;;;;;;;12.07;4.87;;;;;;;23.29;100.00;100711.47;2103632;28;20186;-64
2022/08/27 02:38:31;;;;;;;14.87;4.97;;;;;;;23.86;100.00;100785.88;2106546;28;20183;-65
2022/08/27 02:39:33;;;;;;;11.33;4.20;;;;;;;23.84;100.00;100805.41;2106602;28;20179;-64
2022/08/27 02:40:34;;;;;;;13.27;5.10;;;;;;;23.88;100.00;100785.34;2106497;28;20604;-65
2022/08/27 02:41:35;;;;;;;9.33;3.90;;;;;;;23.87;100.00;100784.59;2106462;28;20201;-64
2022/08/27 02:42:36;;;;;;;7.33;4.70;;;;;;;23.56;100.00;100747.38;2106278;28;20551;-64
2022/08/27 02:43:37;;;;;;;11.10;4.27;;;;;;;23.79;100.00;100788.47;2105677;28;20179;-64
2022/08/27 02:44:38;;;;;;;12.17;4.50;;;;;;;23.78;100.00;100784.88;2107039;28;20171;-65
2022/08/27 02:45:38;;;;;;;8.30;4.80;;;;;;;23.76;100.00;100775.34;2106319;28;20211;-64
2022/08/27 02:46:40;;;;;;;12.23;4.40;;;;;;;23.74;100.00;100780.78;2106167;28;20183;-65
2022/08/27 02:47:41;;;;;;;13.87;4.73;;;;;;;23.72;100.00;100774.84;2106399;28;20175;-65
2022/08/27 02:48:42;;;;;;;9.47;4.40;;;;;;;23.77;100.00;100786.16;2106345;28;20505;-65
2022/08/27 02:49:43;;;;;;;13.27;4.37;;;;;;;23.86;100.00;100783.06;2105175;28;20298;-64
2022/08/27 02:50:44;;;;;;;12.30;4.30;;;;;;;23.63;100.00;100741.97;2106357;28;20424;-64
2022/08/27 02:51:44;;;;;;;13.57;4.60;;;;;;;23.87;100.00;100783.81;2106487;28;20231;-64
2022/08/27 02:52:45;;;;;;;10.00;4.23;;;;;;;23.62;100.00;100754.56;2106341;28;20191;-65
2022/08/27 02:53:45;;;;;;;11.17;4.40;;;;;;;23.71;100.00;100785.41;2106211;28;20179;-64
2022/08/27 02:54:46;;;;;;;12.30;4.30;;;;;;;23.66;100.00;100783.38;2106447;28;20206;-66
2022/08/27 02:55:47;;;;;;;13.67;4.17;;;;;;;22.86;100.00;100662.94;2105841;28;20182;-65
2022/08/27 02:56:48;;;;;;;9.23;4.40;;;;;;;23.59;100.00;100780.31;2106177;28;20550;-64
2022/08/27 02:57:48;;;;;;;10.23;4.40;;;;;;;23.57;100.00;100785.69;2099978;28;20179;-64
2022/08/27 02:58:49;;;;;;;14.80;4.80;;;;;;;23.62;100.00;100787.75;2106538;28;20214;-65
2022/08/27 02:59:50;;;;;;;12.87;4.87;;;;;;;23.12;100.00;100705.81;2106263;28;20221;-64
2022/08/27 03:00:51;;;;;;;12.33;5.37;;;;;;;23.47;100.00;100782.38;2106284;28;20175;-64
2022/08/27 03:01:51;;;;;;;14.73;5.10;;;;;;;22.50;100.00;100652.69;2105183;28;20228;-65
2022/08/27 03:02:52;;;;;;;12.27;4.67;;;;;;;23.29;100.00;100787.81;2106318;28;20179;-65
2022/08/27 03:03:53;;;;;;;14.17;4.97;;;;;;;23.09;100.00;100788.81;2106015;28;20179;-64
2022/08/27 03:04:53;;;;;;;13.73;4.80;;;;;;;22.91;100.00;100791.38;2105799;28;20644;-64
2022/08/27 03:05:54;;;;;;;15.90;5.30;;;;;;;22.69;100.00;100789.31;2105752;28;20216;-65
2022/08/27 03:06:55;;;;;;;13.13;5.00;;;;;;;22.66;100.00;100789.56;2106234;28;20240;-64
2022/08/27 03:07:58;;;;;;;15.13;5.20;;;;;;;22.55;100.00;100795.19;2106149;28;20466;-64
2022/08/27 03:08:59;;;;;;;10.40;5.10;;;;;;;22.51;100.00;100789.78;2106193;28;20187;-64
2022/08/27 03:09:59;;;;;;;9.70;4.70;;;;;;;22.56;100.00;100797.50;2106126;28;20465;-65
2022/08/27 03:11:00;;;;;;;12.10;4.50;;;;;;;22.67;100.00;100797.53;2106313;28;20509;-64
2022/08/27 03:12:01;;;;;;;10.03;4.70;;;;;;;22.73;100.00;100792.66;2106241;28;20186;-64
2022/08/27 03:13:01;;;;;;;11.90;5.10;;;;;;;22.69;100.00;100800.63;2106026;28;20610;-64
2022/08/27 03:14:02;;;;;;;11.20;5.13;;;;;;;22.69;100.00;100799.84;2102577;28;20267;-64
2022/08/27 03:15:07;;;;;;;14.13;5.50;;;;;;;22.62;100.00;100789.06;2105412;28;20693;-64
2022/08/27 03:16:08;;;;;;;12.23;5.23;;;;;;;22.57;100.00;100798.28;2104932;28;20587;-64
2022/08/27 03:18:28;;;;;;;13.10;5.17;;;;;;;22.34;100.00;100785.34;2105577;28;20691;-65
2022/08/27 03:19:28;;;;;;;14.07;5.40;;;;;;;22.46;100.00;100804.66;2106088;28;20852;-64
2022/08/27 03:20:29;;;;;;;14.83;4.80;;;;;;;22.47;100.00;100802.63;2105722;28;20655;-65
2022/08/27 03:21:30;;;;;;;14.30;5.67;;;;;;;22.45;100.00;100808.00;2106021;28;20175;-64
2022/08/27 03:22:30;;;;;;;13.50;5.80;;;;;;;22.40;100.00;100805.91;2105996;28;20182;-65
2022/08/27 03:23:32;;;;;;;16.73;5.70;;;;;;;22.27;100.00;100809.19;2105329;28;20190;-65
2022/08/27 03:24:33;;;;;;;13.50;6.13;;;;;;;22.39;100.00;100812.84;2105811;28;20182;-65
2022/08/27 03:25:33;;;;;;;14.67;5.67;;;;;;;22.35;100.00;100807.44;2105364;28;20467;-65
2022/08/27 03:26:34;;;;;;;10.03;4.97;;;;;;;21.37;100.00;100670.31;2105661;28;20465;-64
2022/08/27 03:27:35;;;;;;;18.53;5.53;;;;;;;22.36;100.00;100811.81;2105036;28;20183;-65
2022/08/27 03:28:36;;;;;;;10.43;5.20;;;;;;;22.30;100.00;100802.53;2106077;28;20182;-64
2022/08/27 03:29:37;;;;;;;14.30;5.77;;;;;;;22.34;100.00;100811.56;2106851;28;20186;-64
2022/08/27 03:30:37;;;;;;;9.57;5.33;;;;;;;22.36;100.00;100811.03;2110955;28;20563;-65
2022/08/27 03:31:38;;;;;;;12.80;5.97;;;;;;;22.33;100.00;100804.38;2103896;28;20202;-64
2022/08/27 03:32:38;;;;;;;11.40;5.67;;;;;;;22.37;100.00;100816.16;2106152;28;20171;-65
2022/08/27 03:33:40;;;;;;;12.23;5.70;;;;;;;22.34;100.00;100808.72;2103108;28;20633;-64
2022/08/27 03:34:41;;;;;;;12.97;5.70;;;;;;;22.46;100.00;100812.38;2105798;28;20291;-64
2022/08/27 03:35:42;;;;;;;14.60;6.17;;;;;;;22.56;100.00;100813.69;2105520;28;20950;-64
2022/08/27 03:36:42;;;;;;;15.50;6.63;;;;;;;22.56;100.00;100816.53;2105248;28;20185;-65
2022/08/27 03:37:43;;;;;;;8.97;5.63;;;;;;;22.59;100.00;100824.75;2104996;28;20232;-64
2022/08/27 03:38:43;;;;;;;14.70;5.97;;;;;;;22.63;100.00;100825.25;2104251;28;20254;-64
2022/08/27 03:39:43;;;;;;;11.33;6.00;;;;;;;22.67;100.00;100820.13;2106026;28;20733;-64
2022/08/27 03:40:44;;;;;;;12.53;6.47;;;;;;;22.75;100.00;100823.22;2104391;28;20258;-64
2022/08/27 03:41:45;;;;;;;16.43;6.57;;;;;;;22.65;100.00;100804.97;2105763;28;20672;-65
2022/08/27 03:42:45;;;;;;;14.30;6.43;;;;;;;22.69;100.00;100825.25;2104942;28;20672;-64
2022/08/27 03:43:46;;;;;;;18.17;6.57;;;;;;;22.69;100.00;100828.88;2105664;28;20186;-64
2022/08/27 03:44:47;;;;;;;17.97;6.60;;;;;;;22.30;100.00;100793.28;2105780;28;20250;-64
2022/08/27 03:45:49;;;;;;;11.57;6.77;;;;;;;22.63;100.00;100825.25;2105832;28;20182;-65
2022/08/27 03:46:51;;;;;;;18.33;7.47;;;;;;;22.58;100.00;100828.84;2105612;28;20179;-65
2022/08/27 03:47:52;;;;;;;18.87;7.00;;;;;;;22.48;100.00;100827.53;2102974;28;20190;-64
2022/08/27 03:48:52;;;;;;;16.23;6.87;;;;;;;22.32;100.00;100822.56;2105820;28;20185;-65
2022/08/27 03:49:53;;;;;;;20.50;6.87;;;;;;;22.35;100.00;100832.84;2105373;28;20206;-65
2022/08/27 03:50:53;;;;;;;15.57;6.60;;;;;;;22.45;100.00;100839.06;2103975;28;20178;-64
2022/08/27 03:51:54;;;;;;;17.13;6.57;;;;;;;22.35;100.00;100826.41;2101786;28;20175;-65
2022/08/27 03:52:54;;;;;;;13.77;7.50;;;;;;;22.23;100.00;100828.44;2105530;28;20687;-65
2022/08/27 03:53:55;;;;;;;14.87;6.97;;;;;;;22.19;100.00;100832.78;2105537;28;20721;-65
2022/08/27 03:54:57;;;;;;;13.67;6.63;;;;;;;22.20;100.00;100840.75;2102492;28;20636;-64
2022/08/27 03:55:58;;;;;;;15.13;6.33;;;;;;;22.28;100.00;100835.38;2102674;28;20179;-66
2022/08/27 03:56:58;;;;;;;11.70;6.60;;;;;;;22.36;100.00;100830.81;2102377;28;20438;-64
2022/08/27 03:57:59;;;;;;;15.97;6.50;;;;;;;22.38;100.00;100836.72;2105318;28;20179;-64
2022/08/27 03:58:59;;;;;;;18.80;7.10;;;;;;;22.34;100.00;100842.59;2105683;28;20183;-65
2022/08/27 04:00:00;;;;;;;12.60;6.23;;;;;;;22.39;100.00;100855.97;2105838;28;20236;-65
2022/08/27 04:01:01;;;;;;;15.90;7.13;;;;;;;22.52;100.00;100847.81;2105370;28;20197;-65
2022/08/27 04:02:02;;;;;;;13.57;6.83;;;;;;;22.53;100.00;100848.59;2105811;28;20720;-64
2022/08/27 04:03:04;;;;;;;13.53;6.73;;;;;;;22.32;100.00;100831.03;2105654;28;20265;-64
2022/08/27 04:04:05;;;;;;;18.00;6.97;;;;;;;22.51;100.00;100846.28;2105815;28;20175;-64
2022/08/27 04:05:09;;;;;;;14.60;6.53;;;;;;;22.61;100.00;100849.66;2105352;28;20189;-65
2022/08/27 04:06:09;;;;;;;14.30;6.07;;;;;;;22.20;100.00;100766.56;2105297;28;20266;-64
2022/08/27 04:07:10;;;;;;;16.53;6.10;;;;;;;22.75;100.00;100854.28;2105623;28;20190;-65
2022/08/27 04:08:12;;;;;;;16.63;6.13;;;;;;;22.79;100.00;100840.69;2105910;28;20187;-64
2022/08/27 04:09:12;;;;;;;15.07;6.40;;;;;;;22.83;100.00;100847.63;2106042;28;20198;-64
2022/08/27 04:10:15;;;;;;;13.87;5.93;;;;;;;22.94;100.00;100846.88;2106585;28;20215;-64
2022/08/27 04:11:15;;;;;;;12.70;6.53;;;;;;;23.03;100.00;100841.00;2107489;28;20179;-66
2022/08/27 04:12:16;;;;;;;13.57;6.47;;;;;;;23.02;100.00;100847.94;2105713;28;20405;-65
2022/08/27 04:13:17;;;;;;;18.27;6.80;;;;;;;23.02;100.00;100845.09;2107000;28;20183;-65
2022/08/27 04:14:18;;;;;;;14.43;6.07;;;;;;;22.98;100.00;100853.81;2106867;28;20194;-64
2022/08/27 04:15:19;;;;;;;14.43;5.80;;;;;;;23.03;100.00;100849.47;2106878;28;20186;-65
2022/08/27 04:16:19;;;;;;;13.50;6.40;;;;;;;22.72;100.00;100776.22;2106810;28;20648;-64
2022/08/27 04:17:20;;;;;;;14.10;6.10;;;;;;;23.24;100.00;100831.00;2104306;28;20270;-64
2022/08/27 04:18:20;;;;;;;13.67;6.10;;;;;;;23.37;100.00;100840.50;2107447;28;20186;-65
2022/08/27 04:19:21;;;;;;;17.73;6.07;;;;;;;22.81;100.00;100754.13;2105218;28;20183;-64
2022/08/27 04:20:21;;;;;;;14.00;5.93;;;;;;;23.37;100.00;100843.31;2106623;28;20182;-64
2022/08/27 04:21:22;;;;;;;13.83;5.83;;;;;;;23.36;100.00;100857.97;2107603;28;20691;-64
2022/08/27 04:22:22;;;;;;;15.97;6.57;;;;;;;23.34;100.00;100850.00;2107458;28;20228;-64
2022/08/27 04:23:23;;;;;;;11.70;5.13;;;;;;;23.36;100.00;100855.16;2107354;28;20204;-64
2022/08/27 04:24:23;;;;;;;14.43;6.67;;;;;;;23.37;100.00;100848.97;2107208;28;20185;-64
2022/08/27 04:25:24;;;;;;;17.23;6.23;;;;;;;22.60;100.00;100727.41;2105649;28;20183;-65
2022/08/27 04:26:25;;;;;;;14.73;5.87;;;;;;;23.45;100.00;100850.03;2107340;28;20301;-64
2022/08/27 04:27:26;;;;;;;13.73;6.17;;;;;;;23.43;100.00;100849.75;2107665;28;20171;-65
2022/08/27 04:28:26;;;;;;;14.73;6.10;;;;;;;23.44;100.00;100850.53;2107214;28;20266;-66
2022/08/27 04:29:27;;;;;;;12.63;5.93;;;;;;;23.54;100.00;100851.81;2106986;28;20179;-64
2022/08/27 04:30:28;;;;;;;17.50;7.10;;;;;;;23.61;100.00;100848.44;2107324;28;20218;-64
2022/08/27 04:31:28;;;;;;;18.50;7.17;;;;;;;23.59;100.00;100848.19;2106857;28;20198;-65
2022/08/27 04:32:29;;;;;;;16.77;6.47;;;;;;;23.62;100.00;100847.94;2107271;28;20663;-65
2022/08/27 04:33:31;;;;;;;13.43;6.67;;;;;;;23.59;100.00;100853.84;2107424;28;20183;-64
2022/08/27 04:34:32;;;;;;;17.70;6.40;;;;;;;22.93;100.00;100758.50;2106957;28;20187;-64
2022/08/27 04:35:33;;;;;;;16.37;6.57;;;;;;;23.51;100.00;100856.44;2101510;28;20267;-64
2022/08/27 04:36:33;;;;;;;14.33;6.47;;;;;;;22.79;100.00;100756.72;2104459;28;20668;-64
2022/08/27 04:37:34;;;;;;;12.17;7.50;;;;;;;23.50;100.00;100866.19;2107002;28;20561;-64
2022/08/27 04:38:35;;;;;;;12.20;6.97;;;;;;;23.55;100.00;100868.22;2107240;28;20633;-65
2022/08/27 04:39:36;;;;;;;17.90;7.60;;;;;;;23.57;100.00;100874.16;2107198;28;20190;-64
2022/08/27 04:41:58;;;;;;;15.70;6.53;;;;;;;23.16;100.00;100824.28;2105815;28;20182;-64
2022/08/27 04:42:59;;;;;;;16.67;6.57;;;;;;;23.48;100.00;100870.81;2106976;28;20433;-65
2022/08/27 04:44:08;;;;;;;14.60;7.03;;;;;;;23.50;100.00;100874.66;2107226;28;20175;-65